Time;durP1;ratioP1;P1;durP2;ratioP2;P2;SDS_P1;SDS_P2;PMS_P1;PMS_P2;Temp;Humidity;BMP_temperature;BMP_pressure;BME280_temperature;BME280_humidity;BME280_pressure;Samples;Min_cycle;Max_cycle;Signal;HPM_P1;HPM_P2
2021/09/09 00:02:07;;;;;;;26.33;16.12;;;;;;;15.98;57.81;100973.56;1670774;84;27457;-60
2021/09/09 00:04:33;;;;;;;29.82;16.87;;;;;;;15.95;57.86;100973.75;1676780;82;27313;-60
2021/09/09 00:06:59;;;;;;;28.75;16.00;;;;;;;15.91;57.97;100968.53;1683138;82;25834;-60
2021/09/09 00:09:25;;;;;;;31.52;16.12;;;;;;;15.89;58.01;100969.11;1644058;84;25797;-61
2021/09/09 00:11:52;;;;;;;29.32;16.35;;;;;;;15.89;58.07;100970.45;1673442;83;25817;-60
2021/09/09 00:14:18;;;;;;;27.45;16.32;;;;;;;15.87;58.13;100973.73;1673308;83;27430;-60
2021/09/09 00:16:44;;;;;;;26.65;16.77;;;;;;;15.85;58.18;100974.30;1670271;84;25800;-60
2021/09/09 00:19:11;;;;;;;28.80;16.52;;;;;;;15.83;58.24;100966.77;1668695;84;25808;-61
2021/09/09 00:21:38;;;;;;;32.38;16.10;;;;;;;15.80;58.31;100962.90;1668239;84;26262;-60
2021/09/09 00:24:05;;;;;;;25.12;14.00;;;;;;;15.80;58.35;100965.60;1659363;84;25702;-61
2021/09/09 00:26:31;;;;;;;31.73;16.37;;;;;;;15.78;58.42;100966.17;1654481;85;27534;-60
2021/09/09 00:28:56;;;;;;;29.90;17.23;;;;;;;15.74;58.47;100957.86;1655509;84;26260;-60
2021/09/09 00:31:22;;;;;;;27.90;16.10;;;;;;;15.73;58.52;100974.17;1672086;83;25796;-60
2021/09/09 00:33:48;;;;;;;25.20;15.93;;;;;;;15.71;58.58;100973.39;1679768;83;25801;-60
2021/09/09 00:36:16;;;;;;;30.72;15.83;;;;;;;15.69;58.61;100972.13;1669510;84;25791;-60
2021/09/09 00:38:42;;;;;;;25.57;14.45;;;;;;;15.66;58.67;100970.09;1649351;84;27412;-60
2021/09/09 00:41:08;;;;;;;32.17;16.97;;;;;;;15.63;58.76;100973.84;1671731;84;25878;-61
2021/09/09 00:43:34;;;;;;;29.95;16.52;;;;;;;15.59;58.87;100972.31;1670492;84;25895;-62
2021/09/09 00:46:00;;;;;;;28.80;17.07;;;;;;;15.51;58.96;100963.27;1672268;84;25842;-61
2021/09/09 00:48:26;;;;;;;29.48;16.52;;;;;;;15.53;59.02;100972.64;1673289;83;25713;-61
2021/09/09 00:50:53;;;;;;;29.05;17.07;;;;;;;15.49;59.09;100967.90;1671758;84;29543;-61
2021/09/09 00:53:20;;;;;;;30.57;16.37;;;;;;;15.46;59.19;100972.13;1650008;84;25797;-61
2021/09/09 00:55:48;;;;;;;29.27;17.07;;;;;;;15.40;59.25;100963.52;1668419;84;26602;-61
2021/09/09 00:58:15;;;;;;;38.02;17.92;;;;;;;15.35;59.37;100961.56;1671617;84;25323;-61
2021/09/09 01:00:41;;;;;;;32.20;17.15;;;;;;;15.32;59.44;100965.78;1668074;84;25932;-61
2021/09/09 01:03:07;;;;;;;31.65;16.80;;;;;;;15.28;59.55;100962.87;1671635;84;29453;-61
2021/09/09 01:05:35;;;;;;;28.65;17.65;;;;;;;15.24;59.66;100955.43;1656505;84;25946;-61
2021/09/09 01:08:01;;;;;;;31.33;17.20;;;;;;;15.22;59.74;100961.39;1672715;83;26088;-61
2021/09/09 01:10:28;;;;;;;31.70;17.77;;;;;;;15.15;59.80;100952.78;1669933;84;26320;-60
2021/09/09 01:12:54;;;;;;;31.42;16.35;;;;;;;15.16;59.91;100956.34;1671845;84;26066;-61
2021/09/09 01:15:21;;;;;;;31.80;16.95;;;;;;;15.14;59.96;100959.61;1667876;84;27408;-61
2021/09/09 01:17:48;;;;;;;31.15;16.32;;;;;;;15.11;60.07;100959.31;1643011;85;25691;-62
2021/09/09 01:20:14;;;;;;;32.78;16.25;;;;;;;15.07;60.11;100960.45;1659319;84;26041;-62
2021/09/09 01:22:42;;;;;;;26.57;15.32;;;;;;;15.06;60.19;100960.53;1667929;84;27843;-61
2021/09/09 01:25:12;;;;;;;31.05;17.35;;;;;;;15.05;60.28;100961.48;1671473;84;25901;-61
2021/09/09 01:27:38;;;;;;;30.72;16.20;;;;;;;15.02;60.36;100951.73;1637566;85;27603;-61
2021/09/09 01:30:05;;;;;;;26.70;15.18;;;;;;;15.00;60.46;100951.43;1657488;84;26401;-61
2021/09/09 01:32:31;;;;;;;28.42;16.90;;;;;;;14.98;60.48;100946.13;1658405;84;26369;-61
2021/09/09 01:34:57;;;;;;;28.10;15.85;;;;;;;14.96;60.56;100948.52;1670544;84;25791;-61
2021/09/09 01:37:23;;;;;;;29.07;16.32;;;;;;;14.94;60.62;100944.55;1658674;84;26400;-61
2021/09/09 01:39:49;;;;;;;26.68;15.88;;;;;;;14.90;60.62;100943.86;1671503;84;27420;-61
2021/09/09 01:42:15;;;;;;;34.33;16.20;;;;;;;14.86;60.68;100942.77;1672787;83;26318;-61
2021/09/09 01:44:41;;;;;;;25.57;15.20;;;;;;;14.82;60.74;100942.55;1674602;83;25808;-61
2021/09/09 01:47:07;;;;;;;33.67;16.48;;;;;;;14.78;60.84;100936.92;1681577;83;25720;-61
2021/09/09 01:49:33;;;;;;;26.90;15.25;;;;;;;14.75;60.98;100942.49;1672926;84;25784;-61
2021/09/09 01:51:59;;;;;;;28.67;16.37;;;;;;;14.72;61.05;100930.52;1654239;85;27482;-61
2021/09/09 01:54:25;;;;;;;28.27;16.23;;;;;;;14.70;61.08;100936.48;1636980;85;25932;-61
2021/09/09 01:56:52;;;;;;;33.25;15.83;;;;;;;14.66;61.17;100934.91;1668604;84;25904;-61
2021/09/09 01:59:18;;;;;;;30.17;15.08;;;;;;;14.63;61.26;100934.60;1680405;83;26449;-61
2021/09/09 02:01:44;;;;;;;25.23;14.65;;;;;;;14.61;61.35;100934.69;1672982;84;25764;-62
2021/09/09 02:04:10;;;;;;;26.75;15.13;;;;;;;14.60;61.40;100937.47;1673731;84;27481;-62
2021/09/09 02:06:36;;;;;;;27.65;15.83;;;;;;;14.58;61.47;100936.69;1675151;83;26631;-61
2021/09/09 02:09:03;;;;;;;28.12;14.75;;;;;;;14.56;61.52;100935.90;1658664;84;25899;-63
2021/09/09 02:11:31;;;;;;;26.40;14.40;;;;;;;14.55;61.57;100937.73;1670510;84;25760;-61
2021/09/09 02:13:57;;;;;;;25.10;14.83;;;;;;;14.54;61.61;100937.81;1671840;84;25713;-61
2021/09/09 02:16:23;;;;;;;25.15;14.23;;;;;;;14.52;61.65;100935.67;1672695;84;29577;-62
2021/09/09 02:18:48;;;;;;;25.10;14.07;;;;;;;14.50;61.68;100934.89;1672994;83;27110;-61
2021/09/09 02:21:17;;;;;;;22.67;14.15;;;;;;;14.49;61.71;100932.67;1675780;83;25740;-61
2021/09/09 02:23:42;;;;;;;27.55;13.98;;;;;;;14.47;61.78;100931.88;1676909;82;25797;-61
2021/09/09 02:26:09;;;;;;;28.73;14.10;;;;;;;14.46;61.80;100930.62;1688360;82;25829;-61
2021/09/09 02:28:35;;;;;;;23.38;14.78;;;;;;;14.46;61.89;100930.62;1681110;83;27391;-61
2021/09/09 02:31:01;;;;;;;25.40;14.85;;;;;;;14.44;61.90;100928.48;1653841;83;26465;-61
2021/09/09 02:33:27;;;;;;;23.10;14.70;;;;;;;14.43;61.96;100926.73;1675614;83;25778;-61
2021/09/09 02:35:53;;;;;;;21.65;13.48;;;;;;;14.41;62.01;100920.52;1671560;84;25830;-61
2021/09/09 02:38:19;;;;;;;21.60;13.93;;;;;;;14.24;62.00;100895.35;1671365;84;25798;-61
2021/09/09 02:40:44;;;;;;;29.85;14.90;;;;;;;14.37;62.09;100918.47;1710512;82;27468;-62
2021/09/09 02:43:12;;;;;;;24.52;14.53;;;;;;;14.35;62.13;100920.86;1710932;82;25791;-61
2021/09/09 02:45:37;;;;;;;22.58;14.33;;;;;;;14.34;62.15;100920.47;1717847;82;25691;-62
2021/09/09 02:48:05;;;;;;;25.57;13.62;;;;;;;14.32;62.23;100920.55;1664434;83;26324;-62
2021/09/09 02:50:33;;;;;;;16.42;12.40;;;;;;;14.30;62.21;100926.50;1639790;85;25884;-62
2021/09/09 02:52:59;;;;;;;23.40;12.58;;;;;;;14.27;62.21;100922.14;1635808;83;27548;-61
2021/09/09 02:55:26;;;;;;;21.48;14.10;;;;;;;14.25;62.30;100923.19;1644919;85;25812;-61
2021/09/09 02:57:52;;;;;;;24.75;14.30;;;;;;;14.24;62.29;100924.14;1710391;82;25927;-62
2021/09/09 03:00:18;;;;;;;25.12;13.60;;;;;;;14.22;62.35;100919.31;1708342;82;25751;-61
2021/09/09 03:02:44;;;;;;;24.35;14.30;;;;;;;14.19;62.37;100920.82;1711105;82;25790;-62
2021/09/09 03:05:11;;;;;;;25.17;13.43;;;;;;;14.18;62.42;100920.42;1671687;83;29634;-61
2021/09/09 03:07:37;;;;;;;25.20;13.88;;;;;;;14.18;62.42;100921.77;1711077;82;25755;-60
2021/09/09 03:10:06;;;;;;;24.70;13.55;;;;;;;14.17;62.47;100921.37;1710001;82;25827;-60
2021/09/09 03:12:33;;;;;;;22.62;12.78;;;;;;;14.17;62.49;100918.69;1709468;82;25793;-60
2021/09/09 03:14:59;;;;;;;23.42;13.15;;;;;;;14.12;62.45;100913.54;1710645;82;25957;-60
2021/09/09 03:17:25;;;;;;;19.82;12.30;;;;;;;14.10;62.51;100914.58;1708643;82;29442;-59
2021/09/09 03:19:51;;;;;;;27.15;13.72;;;;;;;14.06;62.51;100911.17;1709024;82;26043;-59
2021/09/09 03:22:17;;;;;;;24.32;12.93;;;;;;;14.02;62.55;100906.90;1710715;82;25811;-60
2021/09/09 03:24:43;;;;;;;20.45;12.75;;;;;;;14.00;62.60;100901.19;1722485;81;25802;-60
2021/09/09 03:27:09;;;;;;;21.45;12.60;;;;;;;13.97;62.64;100903.58;1725589;81;25874;-60
2021/09/09 03:29:34;;;;;;;22.65;13.70;;;;;;;13.94;62.68;100905.09;1725207;81;27388;-60
2021/09/09 03:32:00;;;;;;;25.43;13.00;;;;;;;13.93;62.69;100903.34;1694101;82;26142;-60
2021/09/09 03:34:26;;;;;;;21.90;13.78;;;;;;;13.90;62.70;100904.86;1727059;81;25790;-60
2021/09/09 03:36:52;;;;;;;25.80;12.95;;;;;;;13.88;62.78;100901.37;1725300;81;25813;-60
2021/09/09 03:39:18;;;;;;;20.65;13.43;;;;;;;13.86;62.76;100901.45;1725487;81;25778;-60
2021/09/09 03:41:43;;;;;;;22.32;13.13;;;;;;;13.83;62.81;100900.27;1734981;81;28129;-60
2021/09/09 03:44:09;;;;;;;26.10;12.65;;;;;;;13.81;62.84;100907.55;1716936;82;26086;-60
2021/09/09 03:46:35;;;;;;;22.90;13.15;;;;;;;13.79;62.87;100905.42;1713452;82;26476;-60
2021/09/09 03:49:03;;;;;;;25.10;13.75;;;;;;;13.76;62.88;100897.50;1713433;81;25898;-60
2021/09/09 03:51:29;;;;;;;21.75;12.60;;;;;;;13.73;62.96;100894.97;1714082;82;25501;-60
2021/09/09 03:53:55;;;;;;;28.75;13.35;;;;;;;13.73;62.98;100895.44;1711257;82;27566;-60
2021/09/09 03:56:21;;;;;;;25.48;12.55;;;;;;;13.70;63.01;100895.13;1709483;82;25939;-60
2021/09/09 03:58:47;;;;;;;24.82;12.60;;;;;;;13.67;63.06;100893.94;1717249;82;25862;-62
2021/09/09 04:01:13;;;;;;;21.30;12.50;;;;;;;13.65;63.08;100890.45;1717090;82;25762;-62
2021/09/09 04:03:38;;;;;;;23.62;13.43;;;;;;;13.64;63.13;100887.36;1717276;82;25762;-62
2021/09/09 04:06:05;;;;;;;24.18;13.10;;;;;;;13.62;63.16;100890.61;1716841;82;29565;-62
2021/09/09 04:08:30;;;;;;;26.62;12.85;;;;;;;13.60;63.17;100881.27;1716698;82;25802;-62
2021/09/09 04:10:56;;;;;;;19.85;12.20;;;;;;;13.60;63.23;100880.39;1714106;82;26436;-61
2021/09/09 04:13:22;;;;;;;20.75;12.30;;;;;;;13.58;63.23;100879.60;1698336;82;25848;-61
2021/09/09 04:15:48;;;;;;;23.32;13.90;;;;;;;13.56;63.27;100881.03;1717036;82;25826;-60
2021/09/09 04:18:14;;;;;;;19.90;12.68;;;;;;;13.56;63.28;100878.81;1712378;82;27393;-60
2021/09/09 04:20:39;;;;;;;25.20;12.90;;;;;;;13.55;63.31;100889.19;1716594;82;26279;-60
2021/09/09 04:23:05;;;;;;;22.80;12.93;;;;;;;13.52;63.34;100888.87;1712598;82;25855;-61
2021/09/09 04:25:32;;;;;;;24.07;13.05;;;;;;;13.51;63.40;100883.56;1701120;82;26820;-60
2021/09/09 04:27:58;;;;;;;21.95;12.73;;;;;;;13.50;63.42;100890.77;1701920;82;25812;-60
2021/09/09 04:30:24;;;;;;;19.00;11.97;;;;;;;13.51;63.48;100884.44;1696645;82;29532;-60
2021/09/09 04:32:50;;;;;;;25.92;13.43;;;;;;;13.51;63.46;100890.30;1700565;82;26265;-60
2021/09/09 04:35:16;;;;;;;22.90;11.93;;;;;;;13.49;63.50;100888.16;1702013;82;26493;-61
2021/09/09 04:37:42;;;;;;;22.05;11.75;;;;;;;13.48;63.54;100880.55;1688163;83;25776;-60
2021/09/09 04:40:10;;;;;;;22.15;12.55;;;;;;;13.48;63.57;100879.68;1701959;82;25820;-60
2021/09/09 04:42:36;;;;;;;23.32;12.60;;;;;;;13.47;63.59;100884.20;1695873;82;27488;-60
2021/09/09 04:45:04;;;;;;;19.57;12.40;;;;;;;13.45;63.64;100878.02;1692934;82;25724;-60
2021/09/09 04:47:31;;;;;;;22.75;13.22;;;;;;;13.45;63.67;100883.88;1701438;82;25767;-63
2021/09/09 04:49:57;;;;;;;29.05;13.58;;;;;;;13.45;63.73;100884.75;1689582;82;25777;-60
2021/09/09 04:52:22;;;;;;;22.77;12.70;;;;;;;13.45;63.71;100881.19;1687825;83;25787;-61
2021/09/09 04:54:48;;;;;;;27.82;14.45;;;;;;;13.46;63.77;100882.45;1694326;82;27450;-60
2021/09/09 04:57:14;;;;;;;27.30;13.25;;;;;;;13.46;63.79;100882.92;1699366;82;26352;-61
2021/09/09 04:59:40;;;;;;;23.05;13.40;;;;;;;13.45;63.84;100889.27;1658677;84;25815;-60
2021/09/09 05:02:06;;;;;;;28.83;13.88;;;;;;;13.46;63.91;100882.45;1693399;82;27897;-60
2021/09/09 05:04:32;;;;;;;22.98;12.78;;;;;;;13.49;63.91;100884.12;1700641;82;26223;-60
2021/09/09 05:06:58;;;;;;;19.77;12.80;;;;;;;13.51;63.99;100879.52;1688716;83;27502;-61
2021/09/09 05:09:23;;;;;;;29.55;13.32;;;;;;;13.54;64.01;100874.85;1681377;84;26671;-61
2021/09/09 05:11:49;;;;;;;21.75;12.95;;;;;;;13.57;64.06;100871.13;1697681;82;25804;-60
2021/09/09 05:14:15;;;;;;;22.42;12.90;;;;;;;13.59;64.03;100870.09;1652870;84;25796;-62
2021/09/09 05:16:41;;;;;;;26.45;13.48;;;;;;;13.62;64.08;100867.72;1668361;84;25781;-61
2021/09/09 05:19:08;;;;;;;26.07;13.40;;;;;;;13.65;64.08;100866.20;1697979;82;27478;-60
2021/09/09 05:21:34;;;;;;;20.95;12.98;;;;;;;13.71;64.12;100867.71;1688027;83;25865;-61
2021/09/09 05:24:00;;;;;;;31.65;13.78;;;;;;;13.73;64.13;100869.38;1706368;82;26109;-60
2021/09/09 05:26:26;;;;;;;31.02;14.15;;;;;;;13.76;64.11;100861.13;1697241;82;27952;-61
2021/09/09 05:28:52;;;;;;;29.15;13.83;;;;;;;13.74;64.16;100852.25;1697328;82;26487;-61
2021/09/09 05:31:18;;;;;;;40.58;15.35;;;;;;;13.84;64.13;100860.24;1668520;84;27434;-60
2021/09/09 05:33:43;;;;;;;36.42;13.75;;;;;;;13.88;64.12;100865.86;1668539;84;25848;-60
2021/09/09 05:36:09;;;;;;;30.95;13.88;;;;;;;13.92;64.15;100861.18;1665004;84;26280;-61
2021/09/09 05:38:35;;;;;;;27.40;14.10;;;;;;;13.96;64.16;100859.59;1667990;84;26149;-61
2021/09/09 05:41:01;;;;;;;33.08;14.35;;;;;;;14.01;64.14;100853.08;1674007;83;25762;-60
2021/09/09 05:43:27;;;;;;;29.63;13.78;;;;;;;14.05;64.17;100850.13;1670918;83;27520;-61
2021/09/09 05:45:54;;;;;;;34.27;13.75;;;;;;;14.11;64.14;100851.14;1682290;82;25772;-61
2021/09/09 05:48:20;;;;;;;28.87;13.22;;;;;;;14.17;64.11;100842.72;1668565;84;25820;-61
2021/09/09 05:50:46;;;;;;;37.42;14.45;;;;;;;14.21;64.10;100846.98;1675363;83;26143;-61
2021/09/09 05:53:11;;;;;;;29.35;14.43;;;;;;;14.24;64.10;100844.13;1677539;83;26590;-61
2021/09/09 05:55:37;;;;;;;27.65;14.07;;;;;;;14.28;64.11;100836.26;1675214;83;27432;-62
2021/09/09 05:58:03;;;;;;;31.40;14.80;;;;;;;14.36;64.09;100849.80;1673608;83;25791;-61
2021/09/09 06:00:31;;;;;;;37.88;17.52;;;;;;;14.42;64.11;100848.13;1679931;83;25784;-61
2021/09/09 06:03:01;;;;;;;31.45;14.40;;;;;;;14.45;64.06;100840.75;1668069;83;26119;-62
2021/09/09 06:05:28;;;;;;;44.30;15.78;;;;;;;14.51;64.07;100847.62;1672765;83;25725;-60
2021/09/09 06:07:55;;;;;;;31.75;13.70;;;;;;;14.56;64.06;100846.41;1669312;83;27495;-60
2021/09/09 06:10:22;;;;;;;27.37;13.40;;;;;;;14.62;64.04;100835.74;1697953;82;26735;-60
2021/09/09 06:12:48;;;;;;;35.17;15.32;;;;;;;14.71;64.07;100839.27;1699328;82;25815;-60
2021/09/09 06:15:14;;;;;;;33.42;15.03;;;;;;;14.78;64.02;100836.61;1701179;82;27955;-60
2021/09/09 06:17:39;;;;;;;32.53;14.40;;;;;;;14.85;64.00;100827.20;1694835;82;25787;-61
2021/09/09 06:20:07;;;;;;;35.17;13.40;;;;;;;14.92;63.94;100824.53;1673570;84;27414;-61
2021/09/09 06:22:33;;;;;;;32.58;13.98;;;;;;;14.99;63.93;100825.52;1668857;84;26365;-61
2021/09/09 06:25:00;;;;;;;35.88;14.35;;;;;;;15.06;63.85;100816.97;1679552;83;26161;-61
2021/09/09 06:27:25;;;;;;;37.05;13.32;;;;;;;15.11;63.85;100816.22;1670959;83;25949;-61
2021/09/09 06:29:51;;;;;;;26.50;13.25;;;;;;;15.18;63.82;100806.79;1679344;83;26329;-61
2021/09/09 06:32:17;;;;;;;28.35;14.25;;;;;;;15.25;63.78;100805.46;1673598;83;27457;-60
2021/09/09 06:34:43;;;;;;;26.60;13.38;;;;;;;15.32;63.73;100805.09;1676893;83;26139;-60
2021/09/09 06:37:09;;;;;;;33.40;13.20;;;;;;;15.38;63.69;100804.23;1679347;83;26413;-60
2021/09/09 06:39:35;;;;;;;29.55;14.03;;;;;;;15.46;63.66;100807.83;1677972;83;25793;-60
2021/09/09 06:42:01;;;;;;;33.48;13.48;;;;;;;15.54;63.63;100814.98;1679240;83;26086;-60
2021/09/09 06:44:27;;;;;;;34.60;13.90;;;;;;;15.61;63.58;100806.89;1679317;83;27470;-60
2021/09/09 06:46:53;;;;;;;24.80;13.72;;;;;;;15.70;63.53;100813.55;1679347;83;25877;-60
2021/09/09 06:49:18;;;;;;;27.48;13.32;;;;;;;15.78;63.48;100804.49;1674355;83;25845;-60
2021/09/09 06:51:44;;;;;;;25.82;13.20;;;;;;;15.85;63.40;100812.61;1677531;83;25894;-60
2021/09/09 06:54:10;;;;;;;25.23;12.78;;;;;;;15.94;63.37;100813.37;1679598;83;26361;-60
2021/09/09 06:56:36;;;;;;;29.25;12.90;;;;;;;16.03;63.31;100810.58;1678966;83;26516;-60
2021/09/09 06:59:02;;;;;;;27.20;12.30;;;;;;;16.10;63.24;100811.44;1679322;83;27160;-60
2021/09/09 07:01:28;;;;;;;27.20;12.18;;;;;;;16.20;63.24;100813.08;1678059;83;26030;-60
2021/09/09 07:03:53;;;;;;;25.43;11.68;;;;;;;16.32;63.09;100816.83;1664559;83;25737;-60
2021/09/09 07:06:19;;;;;;;33.15;12.50;;;;;;;16.44;63.02;100812.85;1678753;83;25838;-60
2021/09/09 07:08:45;;;;;;;26.60;12.03;;;;;;;16.53;62.92;100812.25;1678243;83;27420;-60
2021/09/09 07:11:11;;;;;;;32.10;11.75;;;;;;;16.67;62.77;100806.45;1679119;83;25831;-60
2021/09/09 07:13:37;;;;;;;27.87;10.95;;;;;;;16.78;62.64;100812.89;1676280;83;26079;-60
2021/09/09 07:16:04;;;;;;;22.85;9.70;;;;;;;16.88;62.51;100810.44;1678988;83;25790;-60
2021/09/09 07:18:30;;;;;;;27.27;11.45;;;;;;;16.98;62.36;100810.69;1676792;83;25846;-62
2021/09/09 07:20:56;;;;;;;22.60;11.70;;;;;;;17.07;62.24;100818.20;1677864;83;27420;-61
2021/09/09 07:23:23;;;;;;;23.85;9.85;;;;;;;17.16;62.15;100818.44;1676529;83;26265;-62
2021/09/09 07:25:49;;;;;;;25.88;9.48;;;;;;;17.27;62.01;100808.72;1680908;83;25815;-63
2021/09/09 07:28:15;;;;;;;27.00;10.98;;;;;;;17.43;61.88;100814.33;1710382;82;26299;-61
2021/09/09 07:30:42;;;;;;;21.17;9.25;;;;;;;17.51;61.60;100802.95;1711077;82;25835;-62
2021/09/09 07:33:08;;;;;;;29.50;9.43;;;;;;;17.68;61.41;100825.72;1707766;82;27392;-61
2021/09/09 07:35:34;;;;;;;31.60;10.00;;;;;;;17.79;61.21;100816.34;1711087;82;25789;-62
2021/09/09 07:38:01;;;;;;;19.37;9.40;;;;;;;17.88;60.99;100811.25;1705016;82;26761;-62
2021/09/09 07:40:27;;;;;;;17.92;9.18;;;;;;;17.98;60.86;100811.84;1707243;82;27881;-62
2021/09/09 07:42:53;;;;;;;29.40;9.50;;;;;;;18.08;60.62;100815.63;1706619;82;25791;-62
2021/09/09 07:45:19;;;;;;;21.12;9.58;;;;;;;18.17;60.48;100810.03;1710607;82;27406;-62
2021/09/09 07:47:46;;;;;;;24.47;8.83;;;;;;;18.28;60.27;100806.02;1710118;82;25887;-61
2021/09/09 07:50:13;;;;;;;30.00;8.70;;;;;;;18.36;60.16;100802.25;1710920;82;26536;-61
2021/09/09 07:52:40;;;;;;;22.75;9.03;;;;;;;18.48;59.96;100804.55;1711632;82;26676;-60
2021/09/09 07:55:10;;;;;;;25.40;8.80;;;;;;;18.61;59.76;100809.98;1711286;82;26324;-62
2021/09/09 07:57:36;;;;;;;27.82;9.83;;;;;;;18.70;59.55;100799.79;1711416;82;27487;-61
2021/09/09 08:00:08;;;;;;;24.37;8.30;;;;;;;18.82;59.34;100793.44;1711303;82;26298;-59
2021/09/09 08:02:33;;;;;;;23.52;9.68;;;;;;;18.91;59.12;100795.95;1710009;82;25965;-59
2021/09/09 08:04:59;;;;;;;23.95;7.40;;;;;;;18.99;58.89;100787.59;1710836;82;25830;-59
2021/09/09 08:07:26;;;;;;;33.00;7.80;;;;;;;19.08;58.73;100794.18;1711010;82;51698;-59
2021/09/09 08:09:52;;;;;;;31.73;7.50;;;;;;;19.22;58.56;100787.69;1709838;82;27398;-62
2021/09/09 08:12:18;;;;;;;19.42;7.78;;;;;;;19.37;58.26;100789.22;1708240;82;26410;-60
2021/09/09 08:14:44;;;;;;;20.52;7.17;;;;;;;19.48;58.00;100793.33;1711701;82;25688;-60
2021/09/09 08:17:09;;;;;;;14.95;6.55;;;;;;;19.56;57.76;100790.04;1711431;82;25739;-62
2021/09/09 08:19:35;;;;;;;15.60;6.22;;;;;;;19.65;57.48;100788.83;1710893;82;26183;-61
2021/09/09 08:22:01;;;;;;;19.20;6.25;;;;;;;19.82;57.39;100786.63;1709415;82;27395;-62
2021/09/09 08:24:27;;;;;;;19.45;6.87;;;;;;;19.97;57.04;100784.91;1708795;82;26326;-62
2021/09/09 08:26:53;;;;;;;12.50;6.58;;;;;;;20.09;56.75;100784.41;1723557;81;25837;-61
2021/09/09 08:29:19;;;;;;;12.65;5.60;;;;;;;20.19;56.48;100778.59;1717252;82;26417;-60
2021/09/09 08:31:45;;;;;;;16.80;5.40;;;;;;;20.31;56.01;100780.31;1717106;82;25738;-61
2021/09/09 08:34:11;;;;;;;15.32;6.12;;;;;;;20.50;55.71;100773.39;1716797;82;27334;-61
2021/09/09 08:36:37;;;;;;;19.35;5.33;;;;;;;20.63;54.97;100784.50;1716706;82;25798;-61
2021/09/09 08:39:03;;;;;;;19.10;5.55;;;;;;;20.80;54.57;100780.37;1718489;81;26019;-62
2021/09/09 08:41:31;;;;;;;16.17;5.53;;;;;;;20.92;53.97;100779.30;1712806;82;25857;-61
2021/09/09 08:43:57;;;;;;;21.48;5.28;;;;;;;21.03;53.68;100780.63;1706906;82;25760;-61
2021/09/09 08:46:24;;;;;;;22.95;5.75;;;;;;;21.15;53.24;100772.39;1695091;82;27483;-60
2021/09/09 08:48:49;;;;;;;19.65;4.80;;;;;;;21.28;52.89;100771.75;1718671;81;25999;-60
2021/09/09 08:51:17;;;;;;;14.43;4.12;;;;;;;21.40;52.16;100776.14;1724775;81;26175;-62
2021/09/09 08:53:44;;;;;;;21.12;5.03;;;;;;;21.49;51.62;100769.89;1717814;81;25732;-61
2021/09/09 08:56:15;;;;;;;20.77;4.75;;;;;;;21.62;50.78;100766.45;1733470;81;25772;-61
2021/09/09 08:58:41;;;;;;;37.42;4.97;;;;;;;21.70;49.84;100749.41;1729636;81;27529;-61
2021/09/09 09:01:18;;;;;;;22.52;4.15;;;;;;;21.86;48.86;100766.66;1726520;81;25738;-62
2021/09/09 09:03:55;;;;;;;13.18;3.98;;;;;;;22.01;47.20;100756.61;1723089;81;26426;-60
2021/09/09 09:06:30;;;;;;;14.98;4.75;;;;;;;22.01;47.20;100756.61;1728643;81;25775;-59
2021/09/09 09:09:08;;;;;;;19.82;4.67;;;;;;;22.22;45.73;100752.98;1733956;81;25791;-60
2021/09/09 09:11:39;;;;;;;27.87;5.10;;;;;;;22.22;45.73;100752.98;1705811;82;27459;-61
2021/09/09 09:14:10;;;;;;;14.90;4.47;;;;;;;22.15;45.33;100715.81;1716356;82;26020;-61
2021/09/09 09:16:50;;;;;;;19.75;4.72;;;;;;;22.37;45.21;100743.40;1722912;81;25731;-60
2021/09/09 09:19:20;;;;;;;18.15;4.37;;;;;;;22.46;44.28;100745.29;1712421;82;25919;-61
2021/09/09 09:21:51;;;;;;;19.20;4.40;;;;;;;22.55;43.83;100736.25;1713729;82;25692;-61
2021/09/09 09:24:19;;;;;;;16.75;4.75;;;;;;;22.61;44.18;100743.88;1727876;80;27555;-61
2021/09/09 09:27:11;;;;;;;16.55;4.30;;;;;;;22.66;44.18;100734.75;1704446;82;26161;-62
2021/09/09 09:29:38;;;;;;;8.80;4.22;;;;;;;22.70;44.27;100745.41;1701570;81;25943;-63
2021/09/09 09:32:12;;;;;;;9.28;3.83;;;;;;;22.77;43.50;100741.09;1699597;82;25758;-61
2021/09/09 09:34:40;;;;;;;8.78;3.87;;;;;;;22.81;43.65;100743.94;1700853;84;25707;-61
2021/09/09 09:37:06;;;;;;;14.58;4.00;;;;;;;22.86;43.67;100741.14;1700676;84;28076;-62
2021/09/09 09:39:33;;;;;;;16.95;4.10;;;;;;;22.91;42.31;100734.73;1700241;84;25803;-62
2021/09/09 09:42:04;;;;;;;18.75;4.78;;;;;;;22.94;42.80;100724.88;1700193;84;25757;-61
2021/09/09 09:44:37;;;;;;;17.35;4.53;;;;;;;22.92;42.86;100724.16;1700542;84;25754;-62
2021/09/09 09:47:11;;;;;;;21.45;4.35;;;;;;;22.96;42.33;100725.60;1700749;83;25639;-60
2021/09/09 09:49:47;;;;;;;11.30;4.10;;;;;;;22.96;42.30;100729.70;1700628;84;27446;-60
2021/09/09 09:52:24;;;;;;;14.35;4.40;;;;;;;22.98;42.34;100722.22;1700126;83;25724;-61
2021/09/09 09:54:59;;;;;;;16.85;4.10;;;;;;;23.03;41.67;100716.83;1700716;83;25613;-61
2021/09/09 09:57:27;;;;;;;7.37;3.45;;;;;;;23.09;41.90;100720.34;1700313;83;25687;-60
2021/09/09 09:59:54;;;;;;;12.98;3.83;;;;;;;23.13;41.81;100713.58;1700308;84;25690;-60
2021/09/09 10:02:20;;;;;;;7.33;4.03;;;;;;;23.19;41.54;100712.99;1700168;84;27408;-60
2021/09/09 10:04:49;;;;;;;16.35;4.40;;;;;;;23.24;41.59;100721.63;1700100;84;25650;-61
2021/09/09 10:07:17;;;;;;;21.55;3.92;;;;;;;23.31;41.33;100714.05;1700176;84;25663;-61
2021/09/09 10:09:44;;;;;;;26.33;4.20;;;;;;;23.40;41.43;100710.08;1700369;84;25641;-61
2021/09/09 10:12:13;;;;;;;18.75;4.85;;;;;;;23.49;41.22;100705.06;1700205;84;25882;-62
2021/09/09 10:14:49;;;;;;;10.30;4.40;;;;;;;23.59;40.88;100701.82;1700238;84;29529;-63
2021/09/09 10:17:23;;;;;;;19.02;5.12;;;;;;;23.66;41.01;100711.67;1700127;84;25713;-62
2021/09/09 10:19:49;;;;;;;18.32;4.28;;;;;;;23.72;40.53;100707.83;1693143;82;25724;-62
2021/09/09 10:22:20;;;;;;;13.13;4.10;;;;;;;23.79;40.67;100708.09;1697358;82;27816;-62
2021/09/09 10:24:50;;;;;;;9.08;4.53;;;;;;;23.85;40.23;100704.75;1694613;82;25730;-62
2021/09/09 10:27:33;;;;;;;10.95;4.33;;;;;;;23.89;40.09;100709.78;1695001;82;28249;-62
2021/09/09 10:30:06;;;;;;;15.30;4.28;;;;;;;23.93;40.12;100708.46;1690462;82;25956;-61
2021/09/09 10:32:38;;;;;;;12.07;4.00;;;;;;;24.00;39.78;100697.77;1701717;82;25965;-62
2021/09/09 10:35:26;;;;;;;9.70;3.52;;;;;;;24.05;39.65;100701.42;1692644;82;25760;-60
2021/09/09 10:38:12;;;;;;;11.35;4.05;;;;;;;24.07;39.18;100696.15;1697711;82;25747;-60
2021/09/09 10:40:40;;;;;;;14.20;4.47;;;;;;;24.10;39.48;100695.84;1696441;82;27468;-61
2021/09/09 10:43:12;;;;;;;7.28;3.95;;;;;;;24.15;39.15;100694.02;1679486;84;25682;-61
2021/09/09 10:45:44;;;;;;;10.45;3.90;;;;;;;24.20;39.13;100702.13;1693473;82;25769;-61
2021/09/09 10:48:20;;;;;;;7.47;3.35;;;;;;;24.27;38.08;100684.61;1694830;82;26323;-63
2021/09/09 10:51:04;;;;;;;10.70;4.78;;;;;;;24.32;38.67;100695.97;1688895;82;25711;-61
2021/09/09 10:53:44;;;;;;;15.53;4.22;;;;;;;24.37;38.62;100692.26;1684083;82;27545;-60
2021/09/09 10:56:20;;;;;;;7.58;4.03;;;;;;;24.41;38.15;100690.07;1682154;82;25833;-61
2021/09/09 10:59:05;;;;;;;10.85;4.05;;;;;;;24.45;38.17;100690.11;1687941;82;25812;-61
2021/09/09 11:01:31;;;;;;;13.08;3.80;;;;;;;24.52;38.32;100689.84;1696722;82;26487;-61
2021/09/09 11:03:57;;;;;;;14.33;3.85;;;;;;;24.62;38.50;100688.41;1695051;82;25781;-61
2021/09/09 11:06:25;;;;;;;10.25;4.20;;;;;;;24.69;38.21;100688.14;1698168;82;29609;-59
2021/09/09 11:08:56;;;;;;;10.35;3.55;;;;;;;24.73;38.02;100687.67;1693793;82;25804;-60
2021/09/09 11:11:27;;;;;;;;;;;;;;;24.79;37.97;100679.33;1699724;82;25782;-60
2021/09/09 11:14:00;;;;;;;9.50;3.92;;;;;;;24.83;37.52;100682.97;1688382;82;25810;-60